Bay Islands (Utila), Honduras
Current Conditions -  °F | °C
As of 4:00 PM on Sunday 23 Nov 2014 (Local Time) from MHLC Reporting Station
Few Clouds Few Clouds  
Wind Chill: 28°   Ceiling: Unl
Heat Index: 31°   Visibility: 6mi
Dew Point: 22°   Wind: 5mph
Humidity: 70%   Direction: 350°N
Pressure: 29.77"   Gusts: NA
Location:  16.1°N, 86.95°W
Report Text: MHLC 232200Z 35004KT 9999 FEW022 28/22 Q1008 A2978 NOSIG
Loading
Personal Weather Stations






























Interactive Weather Map New forecast layout! Learn more

10-Day Weather Forecast

Advertisements
Track Severe Weather on mobile